Time;durP1;ratioP1;P1;durP2;ratioP2;P2;SDS_P1;SDS_P2;PMS_P1;PMS_P2;Temp;Humidity;BMP_temperature;BMP_pressure;BME280_temperature;BME280_humidity;BME280_pressure;Samples;Min_cycle;Max_cycle;Signal;HPM_P1;HPM_P2
2023/09/15 00:01:34;;;;;;;3.00;0.95;;;14.70;99.90;;;;;;4916540;29;20028;-71
2023/09/15 00:04:03;;;;;;;1.60;0.77;;;14.70;99.90;;;;;;4928951;29;20036;-71
2023/09/15 00:06:29;;;;;;;4.15;0.82;;;14.70;99.90;;;;;;4918454;29;20043;-71
2023/09/15 00:08:55;;;;;;;3.53;1.02;;;14.70;99.90;;;;;;4913505;29;20051;-70
2023/09/15 00:11:22;;;;;;;1.38;1.02;;;14.70;99.90;;;;;;4918656;29;20028;-70
2023/09/15 00:13:48;;;;;;;3.38;1.10;;;14.60;99.90;;;;;;4941464;28;20024;-70
2023/09/15 00:16:14;;;;;;;13.02;1.00;;;14.60;99.90;;;;;;4944576;29;20043;-70
2023/09/15 00:18:41;;;;;;;2.55;0.88;;;14.50;99.90;;;;;;4916342;29;20024;-70
2023/09/15 00:21:09;;;;;;;2.25;0.82;;;14.40;99.90;;;;;;4933148;28;20146;-70
2023/09/15 00:23:37;;;;;;;1.30;0.93;;;14.40;99.90;;;;;;4915728;29;20031;-70
2023/09/15 00:26:03;;;;;;;3.78;0.88;;;14.40;99.90;;;;;;4931940;29;20040;-71
2023/09/15 00:28:30;;;;;;;1.67;0.65;;;14.30;99.90;;;;;;4917483;29;20076;-71
2023/09/15 00:30:59;;;;;;;1.63;0.77;;;14.30;99.90;;;;;;4914433;29;20032;-71
2023/09/15 00:33:25;;;;;;;3.15;1.20;;;14.20;99.90;;;;;;4923402;29;20038;-71
2023/09/15 00:35:51;;;;;;;1.13;0.63;;;14.20;99.90;;;;;;4909747;29;20033;-71
2023/09/15 00:38:16;;;;;;;4.65;0.80;;;14.10;99.90;;;;;;4931578;29;20039;-71
2023/09/15 00:40:42;;;;;;;4.72;1.30;;;14.10;99.90;;;;;;4907777;29;20087;-71
2023/09/15 00:43:08;;;;;;;3.90;1.30;;;14.10;99.90;;;;;;4929872;29;20540;-71
2023/09/15 00:45:34;;;;;;;6.03;1.00;;;14.00;99.90;;;;;;4918382;29;20074;-71
2023/09/15 00:48:00;;;;;;;1.23;0.85;;;14.00;99.90;;;;;;4915940;29;20063;-72
2023/09/15 00:50:31;;;;;;;1.70;0.73;;;13.90;99.90;;;;;;4916637;29;20047;-71
2023/09/15 00:53:09;;;;;;;;;;;14.00;99.90;;;;;;4916211;29;20090;-72
2023/09/15 00:55:36;;;;;;;2.65;0.98;;;14.00;99.90;;;;;;4912111;29;20351;-71
2023/09/15 00:58:08;;;;;;;1.55;0.80;;;14.00;99.90;;;;;;4915622;29;20078;-71
2023/09/15 01:00:34;;;;;;;9.10;1.60;;;14.00;99.90;;;;;;4911914;29;20536;-71
2023/09/15 01:03:00;;;;;;;2.97;1.38;;;13.90;99.90;;;;;;4943947;28;20036;-71
2023/09/15 01:05:25;;;;;;;2.60;0.88;;;13.90;99.90;;;;;;4908519;29;20076;-71
2023/09/15 01:07:53;;;;;;;1.27;0.70;;;13.90;99.90;;;;;;4915177;29;20028;-70
2023/09/15 01:10:20;;;;;;;2.55;0.98;;;13.90;99.90;;;;;;4911619;29;20036;-71
2023/09/15 01:12:52;;;;;;;4.13;1.50;;;13.90;99.90;;;;;;4914967;29;20020;-71
2023/09/15 01:15:21;;;;;;;18.85;1.67;;;13.80;99.90;;;;;;4932947;29;20082;-70
2023/09/15 01:18:16;;;;;;;2.28;0.88;;;13.80;99.90;;;;;;4915031;29;20111;-70
2023/09/15 01:21:28;;;;;;;1.33;0.88;;;13.80;99.90;;;;;;4914937;29;20036;-70
2023/09/15 01:23:56;;;;;;;1.60;0.80;;;13.70;99.90;;;;;;4915497;29;20044;-70
2023/09/15 01:26:25;;;;;;;2.17;1.05;;;13.70;99.90;;;;;;4915587;29;20071;-70
2023/09/15 01:29:05;;;;;;;1.95;0.75;;;13.70;99.90;;;;;;4916224;29;20384;-70
2023/09/15 01:31:32;;;;;;;2.63;0.70;;;13.70;99.90;;;;;;4917977;29;20548;-70
2023/09/15 01:33:57;;;;;;;2.50;1.15;;;13.70;99.90;;;;;;4915289;29;20381;-71
2023/09/15 01:36:23;;;;;;;4.03;1.42;;;13.70;99.90;;;;;;4909428;29;20039;-70
2023/09/15 01:38:49;;;;;;;2.65;0.98;;;13.70;99.90;;;;;;4915261;29;20063;-70
2023/09/15 01:41:14;;;;;;;3.85;1.38;;;13.80;99.90;;;;;;4909095;29;20048;-70
2023/09/15 01:43:40;;;;;;;2.42;1.13;;;13.80;99.90;;;;;;4915318;29;20354;-70
2023/09/15 01:46:06;;;;;;;2.13;0.90;;;13.80;99.90;;;;;;4921055;29;20036;-70
2023/09/15 01:48:32;;;;;;;4.03;1.10;;;13.70;99.90;;;;;;4914257;29;20089;-70
2023/09/15 01:50:59;;;;;;;4.43;1.23;;;13.60;99.90;;;;;;4915391;29;20063;-70
2023/09/15 01:53:25;;;;;;;8.63;1.00;;;13.60;99.90;;;;;;4915294;29;20400;-70
2023/09/15 01:55:52;;;;;;;4.85;1.50;;;13.50;99.90;;;;;;4910692;29;20096;-70
2023/09/15 01:58:18;;;;;;;5.75;1.10;;;13.50;99.90;;;;;;4913570;29;20107;-71
2023/09/15 02:00:45;;;;;;;2.38;0.85;;;13.40;99.90;;;;;;4910937;29;20040;-71
2023/09/15 02:03:12;;;;;;;2.20;1.20;;;13.50;99.90;;;;;;4912161;29;20028;-71
2023/09/15 02:05:38;;;;;;;2.28;0.80;;;13.40;99.90;;;;;;4911785;29;20020;-70
2023/09/15 02:08:04;;;;;;;2.45;0.98;;;13.30;99.90;;;;;;4935461;29;20381;-70
2023/09/15 02:10:30;;;;;;;4.95;1.48;;;13.40;99.90;;;;;;4913859;29;20032;-70
2023/09/15 02:12:55;;;;;;;4.85;1.05;;;13.30;99.90;;;;;;4942048;28;20031;-70
2023/09/15 02:15:21;;;;;;;7.13;1.27;;;13.30;99.90;;;;;;4920983;29;20027;-70
2023/09/15 02:17:51;;;;;;;4.63;1.33;;;13.30;99.90;;;;;;4910817;29;20536;-70
2023/09/15 02:20:18;;;;;;;1.70;1.02;;;13.30;99.90;;;;;;4913341;29;20046;-70
2023/09/15 02:22:45;;;;;;;2.50;1.23;;;13.40;99.90;;;;;;4910274;29;20111;-71
2023/09/15 02:25:11;;;;;;;3.03;1.95;;;13.40;99.90;;;;;;4896695;29;20043;-70
2023/09/15 02:27:38;;;;;;;1.67;1.08;;;13.40;99.90;;;;;;4909955;29;20032;-71
2023/09/15 02:30:05;;;;;;;3.17;1.00;;;13.40;99.90;;;;;;4932937;29;20056;-71
2023/09/15 02:32:31;;;;;;;5.10;1.10;;;13.40;99.90;;;;;;4914852;29;20540;-71
2023/09/15 02:34:57;;;;;;;1.73;0.85;;;13.50;99.90;;;;;;4928692;29;20067;-71
2023/09/15 02:37:23;;;;;;;7.75;1.20;;;13.40;99.90;;;;;;4913905;29;20401;-71
2023/09/15 02:39:48;;;;;;;3.72;1.70;;;13.40;99.90;;;;;;4914729;29;20044;-70
2023/09/15 02:42:14;;;;;;;5.25;1.77;;;13.40;99.90;;;;;;4913940;29;20044;-71
2023/09/15 02:44:42;;;;;;;4.47;1.08;;;13.40;99.90;;;;;;4918648;29;20047;-70
2023/09/15 02:47:08;;;;;;;3.83;1.67;;;13.30;99.90;;;;;;4937484;29;20039;-70
2023/09/15 02:49:34;;;;;;;3.47;1.63;;;13.30;99.90;;;;;;4913792;29;20044;-70
2023/09/15 02:52:01;;;;;;;2.65;0.88;;;13.30;99.90;;;;;;4917607;29;20055;-70
2023/09/15 02:54:28;;;;;;;7.25;1.38;;;13.30;99.90;;;;;;4918052;29;20031;-70
2023/09/15 02:56:54;;;;;;;10.05;1.58;;;13.20;99.90;;;;;;4917441;29;20059;-70
2023/09/15 02:59:20;;;;;;;5.32;1.65;;;13.20;99.90;;;;;;4915151;29;20032;-71
2023/09/15 03:01:46;;;;;;;1.58;0.90;;;13.20;99.90;;;;;;4917092;29;20035;-71
2023/09/15 03:04:11;;;;;;;2.47;1.20;;;13.20;99.90;;;;;;4917701;29;20364;-71
2023/09/15 03:06:40;;;;;;;4.43;1.17;;;13.20;99.90;;;;;;4917408;29;20032;-71
2023/09/15 03:09:08;;;;;;;2.75;1.33;;;13.20;99.90;;;;;;4916566;29;20108;-70
2023/09/15 03:11:34;;;;;;;2.28;1.08;;;13.10;99.90;;;;;;4917389;29;20091;-71
2023/09/15 03:13:59;;;;;;;2.90;1.45;;;13.10;99.90;;;;;;4914840;29;20036;-71
2023/09/15 03:16:26;;;;;;;3.25;1.42;;;13.10;99.90;;;;;;4924176;29;20024;-70
2023/09/15 03:18:51;;;;;;;2.95;1.17;;;13.10;99.90;;;;;;4917592;29;20028;-71
2023/09/15 03:21:19;;;;;;;6.80;1.80;;;13.10;99.90;;;;;;4916609;29;20036;-71
2023/09/15 03:23:48;;;;;;;1.83;0.98;;;13.10;99.90;;;;;;4908347;29;20036;-70
2023/09/15 03:26:14;;;;;;;5.15;1.15;;;13.00;99.90;;;;;;4916782;29;20118;-71
2023/09/15 03:50:45;;;;;;;2.78;1.52;;;13.00;99.90;;;;;;4917659;29;20373;-71
2023/09/15 03:53:11;;;;;;;4.60;2.05;;;12.80;99.90;;;;;;4909877;29;20044;-70
2023/09/15 03:55:36;;;;;;;4.00;1.13;;;12.90;99.90;;;;;;4917241;29;20159;-70
2023/09/15 03:58:04;;;;;;;3.53;1.40;;;12.80;99.90;;;;;;4916827;29;20035;-70
2023/09/15 04:00:30;;;;;;;6.47;1.17;;;12.80;99.90;;;;;;4912067;29;20021;-71
2023/09/15 04:02:56;;;;;;;6.80;1.65;;;12.70;99.90;;;;;;4913049;29;20047;-70
2023/09/15 04:05:22;;;;;;;2.63;1.25;;;12.70;99.90;;;;;;4915722;29;20034;-70
2023/09/15 04:07:47;;;;;;;4.57;1.50;;;12.70;99.90;;;;;;4915441;29;20508;-70
2023/09/15 04:10:13;;;;;;;5.72;1.83;;;12.70;99.90;;;;;;4916919;29;20039;-72
2023/09/15 04:12:41;;;;;;;4.15;1.80;;;12.70;99.90;;;;;;4931502;29;20503;-70
2023/09/15 04:15:10;;;;;;;2.78;1.25;;;12.70;99.90;;;;;;4921320;29;20036;-70
2023/09/15 04:17:36;;;;;;;1.65;1.02;;;12.70;99.90;;;;;;4910064;29;20484;-71
2023/09/15 04:20:07;;;;;;;1.10;0.75;;;12.70;99.90;;;;;;4915498;29;20036;-70
2023/09/15 04:22:34;;;;;;;3.08;1.42;;;12.60;99.90;;;;;;4910012;29;20393;-70
2023/09/15 04:25:00;;;;;;;2.65;1.65;;;12.70;99.90;;;;;;4915387;29;20039;-71
2023/09/15 04:27:25;;;;;;;2.60;1.25;;;12.70;99.90;;;;;;4911413;29;20127;-70
2023/09/15 04:29:55;;;;;;;1.23;0.95;;;12.70;99.90;;;;;;4916539;29;20036;-70
2023/09/15 04:32:21;;;;;;;2.50;1.10;;;12.80;99.90;;;;;;4909729;29;20040;-71
2023/09/15 04:34:52;;;;;;;52.15;22.08;;;12.70;99.90;;;;;;4914926;29;20020;-71
2023/09/15 04:37:19;;;;;;;4.83;2.83;;;12.70;99.90;;;;;;4904596;29;20040;-70
2023/09/15 04:39:45;;;;;;;15.15;7.18;;;12.40;99.90;;;;;;4916543;29;20363;-70
2023/09/15 04:42:12;;;;;;;3.95;1.75;;;12.50;99.90;;;;;;4915876;29;20127;-70
2023/09/15 04:44:38;;;;;;;3.83;1.15;;;12.50;99.90;;;;;;4918614;29;20030;-70
2023/09/15 04:47:04;;;;;;;5.65;1.73;;;12.60;99.90;;;;;;4918797;29;20564;-70
2023/09/15 04:49:31;;;;;;;5.45;1.35;;;12.60;99.90;;;;;;4915130;29;20044;-70
2023/09/15 04:51:57;;;;;;;7.03;2.05;;;12.70;99.90;;;;;;4914349;29;20040;-70
2023/09/15 04:54:23;;;;;;;3.40;1.75;;;12.70;99.90;;;;;;4915849;29;20570;-71
2023/09/15 04:56:48;;;;;;;5.45;2.08;;;12.70;99.90;;;;;;4908948;29;20135;-70
2023/09/15 04:59:17;;;;;;;3.70;1.40;;;12.80;99.90;;;;;;4901187;29;20532;-71
2023/09/15 05:01:44;;;;;;;3.17;2.05;;;12.70;99.90;;;;;;4928259;29;20032;-71
2023/09/15 05:04:10;;;;;;;4.45;1.85;;;12.60;99.90;;;;;;4914278;29;20103;-71
2023/09/15 05:06:37;;;;;;;5.03;1.75;;;12.70;99.90;;;;;;4913180;29;20138;-70
2023/09/15 05:09:10;;;;;;;4.05;1.65;;;12.60;99.90;;;;;;4914708;29;20640;-71
2023/09/15 05:11:37;;;;;;;5.05;2.03;;;12.60;99.90;;;;;;4910166;29;20041;-70
2023/09/15 05:14:03;;;;;;;6.25;1.45;;;12.60;99.90;;;;;;4926440;29;20087;-70
2023/09/15 05:16:29;;;;;;;2.60;1.42;;;12.60;99.90;;;;;;4916669;29;20035;-71
2023/09/15 05:18:55;;;;;;;6.45;1.98;;;12.40;99.90;;;;;;4914427;29;20036;-71
2023/09/15 05:21:21;;;;;;;3.83;1.20;;;12.40;99.90;;;;;;4912235;29;20035;-71
2023/09/15 05:23:47;;;;;;;5.78;1.23;;;12.50;99.90;;;;;;4913955;29;20024;-71
2023/09/15 05:26:13;;;;;;;7.28;1.90;;;12.60;99.90;;;;;;4915173;29;20043;-71
2023/09/15 05:28:38;;;;;;;5.95;1.30;;;12.50;99.90;;;;;;4914273;29;20453;-71
2023/09/15 05:31:04;;;;;;;5.45;2.35;;;12.50;99.90;;;;;;4913858;29;20445;-71
2023/09/15 05:33:30;;;;;;;4.40;1.77;;;12.50;99.90;;;;;;4898036;29;20023;-71
2023/09/15 05:35:57;;;;;;;4.07;1.40;;;12.50;99.90;;;;;;4893739;29;20120;-71
2023/09/15 05:38:24;;;;;;;4.35;1.50;;;12.50;99.90;;;;;;4914076;29;20024;-71
2023/09/15 05:40:50;;;;;;;2.90;1.38;;;12.60;99.90;;;;;;4909000;29;20115;-71
2023/09/15 05:43:21;;;;;;;3.45;1.65;;;12.60;99.90;;;;;;4928738;29;20032;-71
2023/09/15 05:45:47;;;;;;;2.27;1.23;;;12.60;99.90;;;;;;4916589;29;20028;-71
2023/09/15 05:48:22;;;;;;;5.63;1.58;;;12.60;99.90;;;;;;4913665;29;20060;-71
2023/09/15 05:50:50;;;;;;;3.40;1.77;;;12.60;99.90;;;;;;4912264;29;20033;-71
2023/09/15 05:53:16;;;;;;;5.25;2.05;;;12.70;99.90;;;;;;4897868;29;20047;-71
2023/09/15 05:55:41;;;;;;;5.63;1.70;;;12.80;99.90;;;;;;4911725;29;20397;-71
2023/09/15 05:58:07;;;;;;;3.80;1.17;;;12.80;99.90;;;;;;4913753;29;20043;-71
2023/09/15 06:00:33;;;;;;;4.97;2.03;;;12.80;99.90;;;;;;4912463;29;20166;-71
2023/09/15 06:02:58;;;;;;;4.72;1.65;;;13.00;99.90;;;;;;4906004;29;20704;-68
2023/09/15 06:05:25;;;;;;;4.50;1.85;;;13.10;99.90;;;;;;4914655;29;20485;-68
2023/09/15 06:07:52;;;;;;;3.38;1.50;;;13.10;99.90;;;;;;4915462;29;20106;-68
2023/09/15 06:10:18;;;;;;;7.82;2.40;;;13.10;99.90;;;;;;4922172;29;20040;-69
2023/09/15 06:12:44;;;;;;;2.83;1.40;;;13.10;99.90;;;;;;4915238;29;20020;-70
2023/09/15 06:15:11;;;;;;;2.92;1.20;;;13.10;99.90;;;;;;4910859;29;20074;-69
2023/09/15 06:17:36;;;;;;;4.32;1.73;;;13.10;99.90;;;;;;4911376;29;20552;-71
2023/09/15 06:20:04;;;;;;;7.38;2.47;;;13.20;99.90;;;;;;4913240;29;20123;-69
2023/09/15 06:22:30;;;;;;;3.60;1.60;;;13.30;99.90;;;;;;4914114;29;20017;-69
2023/09/15 06:24:56;;;;;;;3.03;1.50;;;13.30;99.90;;;;;;4915642;29;20024;-69
2023/09/15 06:27:22;;;;;;;2.35;1.15;;;13.30;99.90;;;;;;4916034;29;20100;-69
2023/09/15 06:29:48;;;;;;;7.20;2.13;;;13.40;99.90;;;;;;4918005;29;20060;-71
2023/09/15 06:32:14;;;;;;;3.40;1.60;;;13.40;99.90;;;;;;4947904;28;20035;-70
2023/09/15 06:34:40;;;;;;;2.45;1.10;;;13.40;99.90;;;;;;4933358;29;20042;-70
2023/09/15 06:37:06;;;;;;;4.57;2.35;;;13.50;99.90;;;;;;4918453;29;20044;-70
2023/09/15 06:39:34;;;;;;;3.45;1.48;;;13.50;99.90;;;;;;4917804;29;20024;-69
2023/09/15 06:41:59;;;;;;;5.57;1.70;;;13.50;99.90;;;;;;4918419;29;20043;-70
2023/09/15 06:44:25;;;;;;;6.20;1.75;;;13.60;99.90;;;;;;4918623;29;20032;-70
2023/09/15 06:46:51;;;;;;;4.07;1.77;;;13.50;99.90;;;;;;4918065;29;20047;-70
2023/09/15 06:49:21;;;;;;;5.07;1.85;;;13.60;99.90;;;;;;4918412;29;20028;-71
2023/09/15 06:51:49;;;;;;;5.18;1.38;;;13.70;99.90;;;;;;4916851;29;20085;-71
2023/09/15 06:54:14;;;;;;;2.65;1.55;;;13.80;99.90;;;;;;4918822;29;20042;-71
2023/09/15 06:56:40;;;;;;;5.47;1.75;;;13.90;99.90;;;;;;4917803;29;20044;-71
2023/09/15 06:59:06;;;;;;;6.03;2.08;;;14.00;99.90;;;;;;4916920;29;20028;-72
2023/09/15 07:01:31;;;;;;;2.20;1.27;;;14.00;99.90;;;;;;4913955;29;20036;-71
2023/09/15 07:03:57;;;;;;;2.15;1.10;;;14.00;99.90;;;;;;4918209;29;20047;-72
2023/09/15 07:06:23;;;;;;;3.90;1.70;;;14.00;99.90;;;;;;4916373;29;20031;-71
2023/09/15 07:08:49;;;;;;;5.85;1.65;;;14.00;99.90;;;;;;4918220;29;20111;-71
2023/09/15 07:11:16;;;;;;;8.35;1.90;;;14.10;99.90;;;;;;4917081;29;20447;-71
2023/09/15 07:13:41;;;;;;;3.53;1.55;;;14.20;99.90;;;;;;4914609;29;20437;-70
2023/09/15 07:16:08;;;;;;;3.72;1.70;;;14.20;99.90;;;;;;4932727;29;20040;-71
2023/09/15 07:18:34;;;;;;;3.35;1.10;;;14.20;99.90;;;;;;4918395;29;20079;-71
2023/09/15 07:20:59;;;;;;;6.93;1.73;;;14.30;99.90;;;;;;4917377;29;20028;-71
2023/09/15 07:23:25;;;;;;;3.08;1.20;;;14.40;99.90;;;;;;4918022;29;20028;-69
2023/09/15 07:25:51;;;;;;;2.95;1.42;;;14.50;99.90;;;;;;4917766;29;20398;-69
2023/09/15 07:28:16;;;;;;;4.57;1.55;;;14.50;99.90;;;;;;4916545;29;20123;-71
2023/09/15 07:30:42;;;;;;;8.70;1.50;;;14.60;99.90;;;;;;4914602;29;20028;-69
2023/09/15 07:33:08;;;;;;;3.90;1.58;;;14.70;99.90;;;;;;4917253;29;20033;-69
2023/09/15 07:35:38;;;;;;;3.30;1.48;;;14.80;99.90;;;;;;4914900;29;20028;-69
2023/09/15 07:38:05;;;;;;;6.75;1.60;;;14.70;99.90;;;;;;4917413;29;20640;-69
2023/09/15 07:40:31;;;;;;;3.60;1.65;;;14.80;99.90;;;;;;4914497;29;20047;-71
2023/09/15 07:42:56;;;;;;;2.70;1.58;;;15.00;99.90;;;;;;4914089;29;20038;-70
2023/09/15 07:45:23;;;;;;;7.28;2.22;;;15.10;99.90;;;;;;4916219;29;20380;-70
2023/09/15 07:47:49;;;;;;;2.85;1.40;;;15.20;99.90;;;;;;4911890;29;20128;-70
2023/09/15 07:50:18;;;;;;;4.80;1.77;;;15.10;99.90;;;;;;4915702;29;20107;-70
2023/09/15 07:52:45;;;;;;;2.00;1.20;;;15.20;99.90;;;;;;4913905;29;20373;-69
2023/09/15 07:55:11;;;;;;;3.00;1.55;;;15.30;99.90;;;;;;4914879;29;20087;-69
2023/09/15 07:57:39;;;;;;;2.30;1.15;;;15.40;99.90;;;;;;4915029;29;20028;-70
2023/09/15 08:00:10;;;;;;;2.90;1.38;;;15.50;99.90;;;;;;4915059;29;20079;-70
2023/09/15 08:02:36;;;;;;;7.93;2.25;;;15.70;99.90;;;;;;4913448;29;20043;-70
2023/09/15 08:05:03;;;;;;;3.72;1.73;;;15.80;99.90;;;;;;4914586;29;20032;-70
2023/09/15 08:07:29;;;;;;;5.03;1.42;;;15.90;99.90;;;;;;4913371;29;20373;-70
2023/09/15 08:09:56;;;;;;;1.92;0.95;;;16.10;99.90;;;;;;4915970;29;20043;-70
2023/09/15 08:12:23;;;;;;;10.25;1.95;;;16.20;99.90;;;;;;4916542;29;20038;-70
2023/09/15 08:14:49;;;;;;;2.40;1.25;;;16.20;99.90;;;;;;4909971;29;20051;-70
2023/09/15 08:17:16;;;;;;;2.70;1.15;;;16.30;99.90;;;;;;4917995;29;20028;-70
2023/09/15 08:19:42;;;;;;;3.33;1.17;;;16.40;99.90;;;;;;4905747;29;20051;-70
2023/09/15 08:22:08;;;;;;;5.07;1.60;;;16.50;99.90;;;;;;4904851;29;20111;-70
2023/09/15 08:24:34;;;;;;;6.80;1.50;;;16.50;99.90;;;;;;4911717;29;20160;-70
2023/09/15 08:26:59;;;;;;;3.80;1.40;;;16.50;99.90;;;;;;4916900;29;20059;-70
2023/09/15 08:29:25;;;;;;;4.30;1.55;;;16.60;99.90;;;;;;4903316;29;20036;-70
2023/09/15 08:31:51;;;;;;;2.92;1.15;;;16.70;99.90;;;;;;4914984;29;20040;-70
2023/09/15 08:34:17;;;;;;;1.67;0.95;;;16.90;99.90;;;;;;4915461;29;20055;-70
2023/09/15 08:36:43;;;;;;;4.15;1.40;;;17.00;99.90;;;;;;4916562;29;20083;-70
2023/09/15 08:39:09;;;;;;;1.50;1.20;;;17.10;99.90;;;;;;4908658;29;20039;-70
2023/09/15 08:41:49;;;;;;;2.60;1.42;;;17.30;99.90;;;;;;4931303;29;20469;-71
2023/09/15 08:44:17;;;;;;;3.80;1.23;;;17.30;99.90;;;;;;4909728;29;20075;-70
2023/09/15 08:46:45;;;;;;;3.60;1.48;;;17.50;99.90;;;;;;4944231;29;20035;-70
2023/09/15 08:49:11;;;;;;;3.13;1.45;;;17.60;99.90;;;;;;4908742;29;20048;-70
2023/09/15 08:51:39;;;;;;;2.97;1.90;;;17.70;99.90;;;;;;4914725;29;20035;-71
2023/09/15 08:54:06;;;;;;;4.47;1.42;;;17.80;99.90;;;;;;4908190;29;20040;-70
2023/09/15 08:56:32;;;;;;;4.57;1.35;;;17.90;99.90;;;;;;4916310;29;20032;-70
2023/09/15 08:59:00;;;;;;;4.95;1.50;;;18.10;99.90;;;;;;4909356;29;20032;-70
2023/09/15 09:01:26;;;;;;;3.67;1.10;;;18.10;99.90;;;;;;4891554;29;20048;-69
2023/09/15 09:03:52;;;;;;;6.95;1.95;;;18.40;99.90;;;;;;4931321;29;20434;-69
2023/09/15 09:06:19;;;;;;;6.03;1.23;;;18.50;99.90;;;;;;4915941;29;20103;-70
2023/09/15 09:08:47;;;;;;;5.00;1.30;;;18.60;99.90;;;;;;4910417;29;20033;-70
2023/09/15 09:11:14;;;;;;;3.30;1.42;;;18.80;99.90;;;;;;4912940;29;20084;-70
2023/09/15 09:13:40;;;;;;;3.78;1.33;;;19.00;99.90;;;;;;4910749;29;20619;-70
2023/09/15 09:16:07;;;;;;;3.95;1.05;;;19.00;99.90;;;;;;4936393;29;20047;-71
2023/09/15 09:18:34;;;;;;;2.97;1.42;;;19.10;99.90;;;;;;4907063;29;20100;-71
2023/09/15 09:21:05;;;;;;;4.65;1.67;;;19.20;99.90;;;;;;4904412;29;20032;-70
2023/09/15 09:23:31;;;;;;;7.80;1.20;;;19.40;99.90;;;;;;4908406;29;20040;-71
2023/09/15 09:26:00;;;;;;;5.63;1.52;;;19.50;99.90;;;;;;4915162;29;20764;-71
2023/09/15 09:28:27;;;;;;;6.63;1.58;;;19.70;99.90;;;;;;4912000;29;20123;-71
2023/09/15 09:30:56;;;;;;;2.45;1.05;;;19.80;99.90;;;;;;4915447;29;20032;-71
2023/09/15 09:33:22;;;;;;;2.97;1.27;;;20.00;99.90;;;;;;4911746;29;20120;-71
2023/09/15 09:35:49;;;;;;;2.15;1.13;;;19.90;99.90;;;;;;4914282;29;20036;-72
2023/09/15 09:38:15;;;;;;;2.60;1.17;;;20.20;99.90;;;;;;4912253;29;20063;-71
2023/09/15 09:40:41;;;;;;;3.70;1.63;;;20.40;99.90;;;;;;4914263;29;20476;-71
2023/09/15 09:43:07;;;;;;;2.63;1.25;;;20.40;99.90;;;;;;4911757;29;20050;-71
2023/09/15 09:45:34;;;;;;;4.22;1.40;;;20.70;99.90;;;;;;4921942;29;20020;-71
2023/09/15 09:48:00;;;;;;;2.78;1.02;;;20.80;99.90;;;;;;4913236;29;20039;-71
2023/09/15 09:50:26;;;;;;;3.22;1.63;;;21.00;99.90;;;;;;4929712;29;20043;-70
2023/09/15 09:52:53;;;;;;;4.43;1.52;;;21.20;99.90;;;;;;4911179;29;20036;-71
2023/09/15 09:55:20;;;;;;;5.43;1.27;;;21.40;99.90;;;;;;4915205;29;20024;-71
2023/09/15 09:57:46;;;;;;;2.42;1.13;;;21.50;99.90;;;;;;4911746;29;20123;-70
2023/09/15 10:00:21;;;;;;;5.80;1.77;;;21.50;99.90;;;;;;4914663;29;20358;-71
2023/09/15 10:02:47;;;;;;;3.47;1.00;;;21.80;99.90;;;;;;4911559;29;20091;-71
2023/09/15 10:05:14;;;;;;;2.60;1.00;;;22.00;99.90;;;;;;4915068;29;20032;-71
2023/09/15 10:07:40;;;;;;;3.70;1.52;;;22.00;99.90;;;;;;4910928;29;20175;-71
2023/09/15 10:10:07;;;;;;;3.33;1.30;;;22.30;99.90;;;;;;4921854;29;20164;-71
2023/09/15 10:12:36;;;;;;;1.90;1.05;;;22.50;99.90;;;;;;4906726;29;20044;-71
2023/09/15 10:15:06;;;;;;;4.82;1.00;;;22.60;99.90;;;;;;4918809;29;20043;-71
2023/09/15 10:17:33;;;;;;;2.25;1.20;;;22.70;99.90;;;;;;4913676;29;20028;-71
2023/09/15 10:20:00;;;;;;;4.82;1.05;;;22.90;99.90;;;;;;4914480;29;20036;-71
2023/09/15 10:22:26;;;;;;;3.53;1.48;;;23.00;99.90;;;;;;4929688;29;20057;-71
2023/09/15 10:25:00;;;;;;;1.60;0.93;;;23.30;99.90;;;;;;4910244;29;20047;-71
2023/09/15 10:27:29;;;;;;;3.25;1.02;;;23.40;99.90;;;;;;4915146;29;20032;-70
2023/09/15 10:30:06;;;;;;;3.53;1.88;;;23.50;99.90;;;;;;4894557;29;20037;-71
2023/09/15 10:32:41;;;;;;;8.32;2.40;;;23.80;99.90;;;;;;4906884;29;20036;-58
2023/09/15 10:35:09;;;;;;;3.15;1.60;;;23.70;99.90;;;;;;4909305;29;20184;-55
2023/09/15 10:37:42;;;;;;;2.17;1.40;;;23.70;99.90;;;;;;4911030;29;20128;-58
2023/09/15 10:40:13;;;;;;;4.72;1.35;;;24.00;99.90;;;;;;4913239;29;20032;-72
2023/09/15 10:42:51;;;;;;;2.30;1.20;;;24.10;99.90;;;;;;4913240;29;20036;-71
2023/09/15 10:45:18;;;;;;;5.65;1.17;;;24.40;99.90;;;;;;4912638;29;20047;-71
2023/09/15 10:47:56;;;;;;;4.32;1.40;;;24.40;99.90;;;;;;4914436;29;20388;-70
2023/09/15 10:50:34;;;;;;;3.15;1.20;;;24.80;99.90;;;;;;4914376;29;20044;-70
2023/09/15 10:53:11;;;;;;;10.43;1.65;;;25.00;99.40;;;;;;4912160;29;20033;-71
2023/09/15 10:55:38;;;;;;;1.25;0.93;;;24.90;99.30;;;;;;4915806;29;20170;-72
2023/09/15 10:58:05;;;;;;;5.72;1.08;;;24.80;99.50;;;;;;4911841;29;20099;-72
2023/09/15 11:00:32;;;;;;;1.88;0.73;;;24.90;99.30;;;;;;4913139;29;20054;-71
2023/09/15 11:02:58;;;;;;;2.72;1.02;;;25.50;98.20;;;;;;4910405;29;20055;-72
2023/09/15 11:05:27;;;;;;;3.75;1.35;;;25.50;97.10;;;;;;4928443;29;20036;-72
2023/09/15 11:07:56;;;;;;;3.08;1.15;;;25.30;97.70;;;;;;4912915;29;20040;-72
2023/09/15 11:10:32;;;;;;;9.25;1.65;;;25.50;97.40;;;;;;4913938;29;20039;-72
2023/09/15 11:13:01;;;;;;;4.15;1.35;;;26.00;96.80;;;;;;4914502;29;20036;-72
2023/09/15 11:15:27;;;;;;;5.07;0.88;;;25.60;96.60;;;;;;4937897;29;20043;-73
2023/09/15 11:17:53;;;;;;;3.08;1.23;;;25.70;96.40;;;;;;4922423;29;20055;-72
2023/09/15 11:20:20;;;;;;;2.00;0.95;;;25.90;96.70;;;;;;4917530;29;20028;-72
2023/09/15 11:22:46;;;;;;;2.75;1.27;;;26.20;95.20;;;;;;4915997;29;20032;-72
2023/09/15 11:25:13;;;;;;;2.05;1.13;;;26.30;95.70;;;;;;4917040;29;20111;-72
2023/09/15 11:27:39;;;;;;;3.28;1.45;;;26.60;94.40;;;;;;4915807;29;20119;-72
2023/09/15 11:30:06;;;;;;;4.28;1.33;;;25.70;94.30;;;;;;4916998;29;20107;-72
2023/09/15 11:32:34;;;;;;;2.50;1.20;;;25.70;95.90;;;;;;4916024;29;20488;-72
2023/09/15 11:35:04;;;;;;;3.15;0.90;;;26.00;97.00;;;;;;4915312;29;20504;-72
2023/09/15 11:37:31;;;;;;;1.40;0.80;;;26.80;94.40;;;;;;4915814;29;20028;-72
2023/09/15 11:39:58;;;;;;;2.80;1.38;;;26.40;94.00;;;;;;4900012;29;20032;-72
2023/09/15 11:42:24;;;;;;;2.75;1.30;;;27.10;93.70;;;;;;4911761;29;20032;-72
2023/09/15 11:44:50;;;;;;;2.55;0.90;;;27.00;93.80;;;;;;4914834;29;20079;-72
2023/09/15 11:47:17;;;;;;;3.03;1.25;;;26.60;93.90;;;;;;4896918;29;20033;-73
2023/09/15 11:49:44;;;;;;;3.67;1.17;;;26.90;93.20;;;;;;4915999;29;20024;-73
2023/09/15 11:52:11;;;;;;;1.33;0.85;;;26.60;92.60;;;;;;4912787;29;20056;-73
2023/09/15 11:54:37;;;;;;;2.95;0.98;;;26.80;92.50;;;;;;4916974;29;20051;-73
2023/09/15 11:57:03;;;;;;;4.00;1.20;;;27.10;91.30;;;;;;4914982;29;20055;-73
2023/09/15 11:59:29;;;;;;;2.35;1.20;;;26.90;90.50;;;;;;4916662;29;20100;-72
2023/09/15 12:01:58;;;;;;;2.60;1.25;;;26.60;92.40;;;;;;4914143;29;20028;-69
2023/09/15 12:04:24;;;;;;;2.83;1.20;;;27.50;91.00;;;;;;4915296;29;20035;-69
2023/09/15 12:06:50;;;;;;;2.10;1.23;;;27.40;89.30;;;;;;4913342;29;20043;-69
2023/09/15 12:09:18;;;;;;;1.70;0.90;;;28.40;87.50;;;;;;4915663;29;20040;-69
2023/09/15 12:11:44;;;;;;;3.22;0.98;;;29.30;84.70;;;;;;4908257;29;20043;-69
2023/09/15 12:14:13;;;;;;;2.45;0.98;;;29.40;80.20;;;;;;4914183;29;20377;-69
2023/09/15 12:16:39;;;;;;;1.15;0.80;;;28.50;81.50;;;;;;4916066;29;20040;-67
2023/09/15 12:19:05;;;;;;;2.60;1.10;;;29.20;81.40;;;;;;4915383;29;20111;-66
2023/09/15 12:21:31;;;;;;;3.03;1.08;;;30.20;76.00;;;;;;4915891;29;20505;-68
2023/09/15 12:24:10;;;;;;;2.10;1.00;;;31.50;73.80;;;;;;4916505;29;20036;-68
2023/09/15 12:26:38;;;;;;;1.73;0.77;;;29.90;74.70;;;;;;4906764;29;20040;-68
2023/09/15 12:29:04;;;;;;;1.60;0.85;;;29.40;73.80;;;;;;4915207;29;20164;-67
2023/09/15 12:31:44;;;;;;;3.45;1.00;;;29.30;76.90;;;;;;4913373;29;20189;-68
2023/09/15 12:34:19;;;;;;;3.50;0.97;;;28.80;77.70;;;;;;4916316;29;20043;-67
2023/09/15 12:36:46;;;;;;;1.55;0.90;;;29.10;77.70;;;;;;4916241;29;20063;-68
2023/09/15 12:39:13;;;;;;;2.25;0.90;;;29.00;76.40;;;;;;4914977;29;20107;-68
2023/09/15 12:41:39;;;;;;;2.35;0.80;;;29.70;75.10;;;;;;4910840;29;20072;-68
2023/09/15 12:44:05;;;;;;;2.47;1.02;;;29.20;76.80;;;;;;4914906;29;20067;-68
2023/09/15 12:46:32;;;;;;;6.63;1.27;;;30.70;71.80;;;;;;4912810;29;20040;-68
2023/09/15 12:48:57;;;;;;;1.15;0.73;;;30.80;72.80;;;;;;4916436;29;20051;-68
2023/09/15 12:51:23;;;;;;;3.67;0.70;;;29.40;72.20;;;;;;4912394;29;20040;-69
2023/09/15 12:53:48;;;;;;;1.20;0.68;;;30.30;72.20;;;;;;4915910;29;20036;-68
2023/09/15 12:56:14;;;;;;;2.25;0.77;;;31.20;70.40;;;;;;4915385;29;20044;-68
2023/09/15 12:58:40;;;;;;;1.23;0.63;;;31.00;70.40;;;;;;4916264;29;20321;-68
2023/09/15 13:01:06;;;;;;;1.90;0.60;;;31.00;69.00;;;;;;4915591;29;20040;-68
2023/09/15 13:03:31;;;;;;;2.25;1.00;;;31.10;69.20;;;;;;4914485;29;20029;-68
2023/09/15 13:05:57;;;;;;;2.90;0.82;;;30.90;69.20;;;;;;4915675;29;20028;-68
2023/09/15 13:08:23;;;;;;;3.42;0.88;;;31.60;67.80;;;;;;4915899;29;20040;-68
2023/09/15 13:10:48;;;;;;;1.95;0.73;;;32.30;66.70;;;;;;4915373;29;20127;-68